Airfield :
LOGIN :

Register | Disclaimer

   EN    FR    IT 

 










Legend :    VFR   Marginal VFR   IFR   Intensive IFR   Very Intensive IFR
Visi :
Ceiling :
>= 8 km
>= 3000ft
5 to 8 km
1000 to 3000 ft
1500m to 5 km
500 to 1000 ft
800 to 1500m
200 to 500 ft
< 800m
< 200 ft
Symbols :   Thunderstorms  Fog  Heavy snow  Heavy precipitations  Wind > 20 kt
SIGMETs :     Misc.  Thunderstorms  Icing  Turbulence  Mountain Waves  Volcanic Ashes






- Airport Elevation : 436 ft
- IATA code : BTS


LZIB - Bratislava

CURRENT METAR :
  • 291700Z 23006KT 180V300 CAVOK 05/M02 Q1010 R88/CLRD// NOSIG

EXPIRED METARs :
  • 291630Z VRB04KT CAVOK 05/M02 Q1010 R88/CLRD// NOSIG
  • 291600Z 26007KT 200V310 9999 FEW031 BKN065 05/M02 Q1009 R88/CLRD// NOSIG
  • 291530Z 26008KT 190V320 9999 FEW031 SCT069 05/M02 Q1009 R88/CLRD// NOSIG
  • 291500Z 24006KT 180V300 9999 FEW031 SCT063 06/M02 Q1009 WS R13 R88/CLRD// NOSIG
  • 291430Z 25009KT 200V310 9999 FEW034 BKN045 06/M01 Q1009 WS ALL RWY R88/CLRD// NOSIG

TAF TAF LZIB
Valid from the 29 at 12:00 until the 30 at 12:00 UTC


291100Z 2912/3012 22007KT 9999 BKN014
BECMG 2912/2914 SCT035
TEMPO 2912/2917 29015KT 5000 -SHRA BKN030
TEMPO 2917/2922 5000 -RA BKN020 BKN050
PROB40
TEMPO 2922/3012 28015G25KT



MET'MAP, your aeronautical weather chart ! - Copyright ORBIFLY December 2007 - Disclaimer

ORBIFLY MET'MAP TEAM :

Programming & Development : Alexandra Zaïnal
Concept & original design : Baudouin d'Aumeries
Assistance for programming : Marc-Olivier Méhu
Technical & hardware support : Manuel Goepfert

Contact : metmap@orbifly.com




SOURCES & CREDITS :

   NOAA